sensor_id;sensor_type;location;lat;lon;timestamp;P1;durP1;ratioP1;P2;durP2;ratioP2
25497;SDS011;13406;53.380;7.226;2023-03-01T00:01:23;12.10;;;10.77;;
25497;SDS011;13406;53.380;7.226;2023-03-01T00:03:49;12.23;;;10.07;;
25497;SDS011;13406;53.380;7.226;2023-03-01T00:06:14;11.57;;;10.17;;
25497;SDS011;13406;53.380;7.226;2023-03-01T00:08:40;11.43;;;10.20;;
25497;SDS011;13406;53.380;7.226;2023-03-01T00:11:06;12.50;;;10.57;;
25497;SDS011;13406;53.380;7.226;2023-03-01T00:13:32;12.93;;;11.10;;
25497;SDS011;13406;53.380;7.226;2023-03-01T00:15:57;11.87;;;10.67;;
25497;SDS011;13406;53.380;7.226;2023-03-01T00:18:23;13.23;;;11.10;;
25497;SDS011;13406;53.380;7.226;2023-03-01T00:20:51;11.30;;;10.10;;
25497;SDS011;13406;53.380;7.226;2023-03-01T00:23:17;13.60;;;11.37;;
25497;SDS011;13406;53.380;7.226;2023-03-01T00:25:42;11.83;;;10.50;;
25497;SDS011;13406;53.380;7.226;2023-03-01T00:28:08;10.73;;;9.53;;
25497;SDS011;13406;53.380;7.226;2023-03-01T00:30:33;13.87;;;10.53;;
25497;SDS011;13406;53.380;7.226;2023-03-01T00:32:58;11.50;;;10.03;;
25497;SDS011;13406;53.380;7.226;2023-03-01T00:35:24;14.07;;;10.07;;
25497;SDS011;13406;53.380;7.226;2023-03-01T00:37:49;11.63;;;10.40;;
25497;SDS011;13406;53.380;7.226;2023-03-01T00:40:22;11.80;;;10.03;;
25497;SDS011;13406;53.380;7.226;2023-03-01T00:42:48;13.13;;;10.93;;
25497;SDS011;13406;53.380;7.226;2023-03-01T00:45:13;12.17;;;10.63;;
25497;SDS011;13406;53.380;7.226;2023-03-01T00:47:38;13.27;;;10.87;;
25497;SDS011;13406;53.380;7.226;2023-03-01T00:50:03;13.20;;;11.63;;
25497;SDS011;13406;53.380;7.226;2023-03-01T00:52:29;12.37;;;10.63;;
25497;SDS011;13406;53.380;7.226;2023-03-01T00:54:54;13.83;;;10.87;;
25497;SDS011;13406;53.380;7.226;2023-03-01T00:57:19;12.33;;;10.80;;
25497;SDS011;13406;53.380;7.226;2023-03-01T00:59:45;11.83;;;9.97;;
25497;SDS011;13406;53.380;7.226;2023-03-01T01:02:10;12.43;;;10.50;;
25497;SDS011;13406;53.380;7.226;2023-03-01T01:04:35;12.23;;;10.87;;
25497;SDS011;13406;53.380;7.226;2023-03-01T01:07:01;12.73;;;10.37;;
25497;SDS011;13406;53.380;7.226;2023-03-01T01:09:26;11.23;;;10.03;;
25497;SDS011;13406;53.380;7.226;2023-03-01T01:11:51;15.60;;;10.50;;
25497;SDS011;13406;53.380;7.226;2023-03-01T01:14:17;10.33;;;9.33;;
25497;SDS011;13406;53.380;7.226;2023-03-01T01:16:42;11.43;;;9.87;;
25497;SDS011;13406;53.380;7.226;2023-03-01T01:19:09;11.80;;;10.13;;
25497;SDS011;13406;53.380;7.226;2023-03-01T01:21:34;11.30;;;10.10;;
25497;SDS011;13406;53.380;7.226;2023-03-01T01:24:00;13.40;;;11.03;;
25497;SDS011;13406;53.380;7.226;2023-03-01T01:26:26;13.13;;;9.53;;
25497;SDS011;13406;53.380;7.226;2023-03-01T01:28:52;12.50;;;10.87;;
25497;SDS011;13406;53.380;7.226;2023-03-01T01:31:18;13.07;;;11.67;;
25497;SDS011;13406;53.380;7.226;2023-03-01T01:33:43;12.10;;;10.80;;
25497;SDS011;13406;53.380;7.226;2023-03-01T01:36:09;14.27;;;11.67;;
25497;SDS011;13406;53.380;7.226;2023-03-01T01:38:35;12.43;;;10.20;;
25497;SDS011;13406;53.380;7.226;2023-03-01T01:41:00;11.63;;;10.00;;
25497;SDS011;13406;53.380;7.226;2023-03-01T01:43:30;14.30;;;10.60;;
25497;SDS011;13406;53.380;7.226;2023-03-01T01:45:59;13.37;;;10.97;;
25497;SDS011;13406;53.380;7.226;2023-03-01T01:48:28;13.43;;;11.70;;
25497;SDS011;13406;53.380;7.226;2023-03-01T01:51:05;12.20;;;10.23;;
25497;SDS011;13406;53.380;7.226;2023-03-01T01:53:30;14.60;;;11.37;;
25497;SDS011;13406;53.380;7.226;2023-03-01T01:55:58;15.03;;;10.77;;
25497;SDS011;13406;53.380;7.226;2023-03-01T01:58:26;13.63;;;11.10;;
25497;SDS011;13406;53.380;7.226;2023-03-01T02:00:52;12.80;;;10.50;;
25497;SDS011;13406;53.380;7.226;2023-03-01T02:03:19;13.30;;;11.07;;
25497;SDS011;13406;53.380;7.226;2023-03-01T02:05:51;11.33;;;10.13;;
25497;SDS011;13406;53.380;7.226;2023-03-01T02:08:19;14.07;;;10.37;;
25497;SDS011;13406;53.380;7.226;2023-03-01T02:10:45;12.63;;;11.27;;
25497;SDS011;13406;53.380;7.226;2023-03-01T02:13:10;11.53;;;10.20;;
25497;SDS011;13406;53.380;7.226;2023-03-01T02:15:36;14.10;;;11.73;;
25497;SDS011;13406;53.380;7.226;2023-03-01T02:18:02;12.87;;;11.00;;
25497;SDS011;13406;53.380;7.226;2023-03-01T02:23:12;10.77;;;9.60;;
25497;SDS011;13406;53.380;7.226;2023-03-01T02:28:35;12.17;;;10.00;;
25497;SDS011;13406;53.380;7.226;2023-03-01T02:31:02;13.10;;;10.57;;
25497;SDS011;13406;53.380;7.226;2023-03-01T02:33:46;14.10;;;10.33;;
25497;SDS011;13406;53.380;7.226;2023-03-01T02:36:21;12.93;;;10.67;;
25497;SDS011;13406;53.380;7.226;2023-03-01T02:38:47;14.33;;;9.20;;
25497;SDS011;13406;53.380;7.226;2023-03-01T02:41:15;10.40;;;8.90;;
25497;SDS011;13406;53.380;7.226;2023-03-01T02:43:41;11.80;;;10.00;;
25497;SDS011;13406;53.380;7.226;2023-03-01T02:46:14;10.97;;;9.80;;
25497;SDS011;13406;53.380;7.226;2023-03-01T02:48:44;12.80;;;10.23;;
25497;SDS011;13406;53.380;7.226;2023-03-01T02:53:41;11.00;;;9.90;;
25497;SDS011;13406;53.380;7.226;2023-03-01T02:56:12;12.33;;;9.80;;
25497;SDS011;13406;53.380;7.226;2023-03-01T02:58:41;12.17;;;10.30;;
25497;SDS011;13406;53.380;7.226;2023-03-01T03:01:13;11.07;;;9.93;;
25497;SDS011;13406;53.380;7.226;2023-03-01T03:03:40;10.87;;;9.33;;
25497;SDS011;13406;53.380;7.226;2023-03-01T03:06:05;11.87;;;10.57;;
25497;SDS011;13406;53.380;7.226;2023-03-01T03:08:30;11.77;;;10.20;;
25497;SDS011;13406;53.380;7.226;2023-03-01T03:10:56;11.17;;;9.97;;
25497;SDS011;13406;53.380;7.226;2023-03-01T03:13:21;13.33;;;10.47;;
25497;SDS011;13406;53.380;7.226;2023-03-01T03:15:47;12.30;;;10.27;;
25497;SDS011;13406;53.380;7.226;2023-03-01T03:18:16;11.60;;;10.00;;
25497;SDS011;13406;53.380;7.226;2023-03-01T03:20:42;9.60;;;8.70;;
25497;SDS011;13406;53.380;7.226;2023-03-01T03:23:08;12.17;;;9.97;;
25497;SDS011;13406;53.380;7.226;2023-03-01T03:25:33;10.87;;;9.77;;
25497;SDS011;13406;53.380;7.226;2023-03-01T03:28:02;11.57;;;10.10;;
25497;SDS011;13406;53.380;7.226;2023-03-01T03:30:35;15.23;;;10.33;;
25497;SDS011;13406;53.380;7.226;2023-03-01T03:33:00;12.60;;;9.90;;
25497;SDS011;13406;53.380;7.226;2023-03-01T03:35:29;10.90;;;9.80;;
25497;SDS011;13406;53.380;7.226;2023-03-01T03:38:03;13.23;;;10.70;;
25497;SDS011;13406;53.380;7.226;2023-03-01T03:40:33;12.97;;;10.90;;
25497;SDS011;13406;53.380;7.226;2023-03-01T03:42:59;11.83;;;10.40;;
25497;SDS011;13406;53.380;7.226;2023-03-01T03:45:24;11.57;;;10.37;;
25497;SDS011;13406;53.380;7.226;2023-03-01T03:47:49;12.10;;;9.90;;
25497;SDS011;13406;53.380;7.226;2023-03-01T03:50:15;12.17;;;10.93;;
25497;SDS011;13406;53.380;7.226;2023-03-01T03:52:41;11.67;;;10.47;;
25497;SDS011;13406;53.380;7.226;2023-03-01T03:55:07;12.73;;;11.43;;
25497;SDS011;13406;53.380;7.226;2023-03-01T03:57:39;12.33;;;11.00;;
25497;SDS011;13406;53.380;7.226;2023-03-01T04:00:05;13.07;;;11.53;;
25497;SDS011;13406;53.380;7.226;2023-03-01T04:02:32;13.13;;;11.27;;
25497;SDS011;13406;53.380;7.226;2023-03-01T04:04:57;11.63;;;10.43;;
25497;SDS011;13406;53.380;7.226;2023-03-01T04:07:22;11.03;;;9.90;;
25497;SDS011;13406;53.380;7.226;2023-03-01T04:09:47;10.17;;;9.17;;
25497;SDS011;13406;53.380;7.226;2023-03-01T04:12:13;10.50;;;9.50;;
25497;SDS011;13406;53.380;7.226;2023-03-01T04:14:38;11.33;;;9.60;;
25497;SDS011;13406;53.380;7.226;2023-03-01T04:17:03;11.30;;;10.10;;
25497;SDS011;13406;53.380;7.226;2023-03-01T04:19:30;15.93;;;10.70;;
25497;SDS011;13406;53.380;7.226;2023-03-01T04:22:00;15.17;;;10.60;;
25497;SDS011;13406;53.380;7.226;2023-03-01T04:24:32;16.93;;;12.67;;
25497;SDS011;13406;53.380;7.226;2023-03-01T04:27:00;17.00;;;13.63;;
25497;SDS011;13406;53.380;7.226;2023-03-01T04:29:25;19.07;;;13.70;;
25497;SDS011;13406;53.380;7.226;2023-03-01T04:31:50;23.47;;;16.70;;
25497;SDS011;13406;53.380;7.226;2023-03-01T04:34:15;29.13;;;18.27;;
25497;SDS011;13406;53.380;7.226;2023-03-01T04:36:41;23.93;;;18.57;;
25497;SDS011;13406;53.380;7.226;2023-03-01T04:39:08;24.43;;;17.80;;
25497;SDS011;13406;53.380;7.226;2023-03-01T04:41:37;23.00;;;17.67;;
25497;SDS011;13406;53.380;7.226;2023-03-01T04:44:04;22.87;;;16.83;;
25497;SDS011;13406;53.380;7.226;2023-03-01T04:46:29;18.83;;;16.37;;
25497;SDS011;13406;53.380;7.226;2023-03-01T04:48:54;23.23;;;16.63;;
25497;SDS011;13406;53.380;7.226;2023-03-01T04:51:20;19.53;;;14.37;;
25497;SDS011;13406;53.380;7.226;2023-03-01T04:53:45;19.30;;;14.23;;
25497;SDS011;13406;53.380;7.226;2023-03-01T04:56:10;22.57;;;17.07;;
25497;SDS011;13406;53.380;7.226;2023-03-01T04:58:36;23.27;;;17.17;;
25497;SDS011;13406;53.380;7.226;2023-03-01T05:01:07;23.87;;;18.70;;
25497;SDS011;13406;53.380;7.226;2023-03-01T05:03:39;19.00;;;14.57;;
25497;SDS011;13406;53.380;7.226;2023-03-01T05:06:05;16.63;;;13.60;;
25497;SDS011;13406;53.380;7.226;2023-03-01T05:08:30;16.60;;;12.80;;
25497;SDS011;13406;53.380;7.226;2023-03-01T05:10:59;15.37;;;12.73;;
25497;SDS011;13406;53.380;7.226;2023-03-01T05:13:24;15.20;;;12.90;;
25497;SDS011;13406;53.380;7.226;2023-03-01T05:15:57;15.27;;;11.80;;
25497;SDS011;13406;53.380;7.226;2023-03-01T05:18:23;14.07;;;10.60;;
25497;SDS011;13406;53.380;7.226;2023-03-01T05:20:50;17.60;;;11.93;;
25497;SDS011;13406;53.380;7.226;2023-03-01T05:23:16;16.40;;;12.20;;
25497;SDS011;13406;53.380;7.226;2023-03-01T05:25:43;14.20;;;11.23;;
25497;SDS011;13406;53.380;7.226;2023-03-01T05:28:10;14.70;;;11.87;;
25497;SDS011;13406;53.380;7.226;2023-03-01T05:30:36;12.90;;;10.03;;
25497;SDS011;13406;53.380;7.226;2023-03-01T05:33:01;13.43;;;10.83;;
25497;SDS011;13406;53.380;7.226;2023-03-01T05:35:27;12.10;;;10.80;;
25497;SDS011;13406;53.380;7.226;2023-03-01T05:37:52;14.97;;;11.33;;
25497;SDS011;13406;53.380;7.226;2023-03-01T05:40:19;13.90;;;11.20;;
25497;SDS011;13406;53.380;7.226;2023-03-01T05:45:10;14.50;;;11.70;;
25497;SDS011;13406;53.380;7.226;2023-03-01T05:47:37;15.30;;;11.50;;
25497;SDS011;13406;53.380;7.226;2023-03-01T05:50:02;13.73;;;10.77;;
25497;SDS011;13406;53.380;7.226;2023-03-01T05:52:29;11.53;;;10.10;;
25497;SDS011;13406;53.380;7.226;2023-03-01T05:54:54;11.00;;;9.50;;
25497;SDS011;13406;53.380;7.226;2023-03-01T05:57:20;9.97;;;8.97;;
25497;SDS011;13406;53.380;7.226;2023-03-01T05:59:45;11.30;;;10.00;;
25497;SDS011;13406;53.380;7.226;2023-03-01T06:02:10;11.10;;;9.07;;
25497;SDS011;13406;53.380;7.226;2023-03-01T06:04:36;9.87;;;8.53;;
25497;SDS011;13406;53.380;7.226;2023-03-01T06:07:01;11.83;;;8.70;;
25497;SDS011;13406;53.380;7.226;2023-03-01T06:09:26;11.80;;;9.40;;
25497;SDS011;13406;53.380;7.226;2023-03-01T06:11:54;12.60;;;10.10;;
25497;SDS011;13406;53.380;7.226;2023-03-01T06:14:19;13.23;;;9.97;;
25497;SDS011;13406;53.380;7.226;2023-03-01T06:16:45;13.37;;;10.30;;
25497;SDS011;13406;53.380;7.226;2023-03-01T06:19:11;10.67;;;9.10;;
25497;SDS011;13406;53.380;7.226;2023-03-01T06:21:36;11.83;;;8.97;;
25497;SDS011;13406;53.380;7.226;2023-03-01T06:24:01;10.30;;;9.00;;
25497;SDS011;13406;53.380;7.226;2023-03-01T06:26:26;12.50;;;9.97;;
25497;SDS011;13406;53.380;7.226;2023-03-01T06:28:52;13.33;;;11.17;;
25497;SDS011;13406;53.380;7.226;2023-03-01T06:31:17;14.67;;;11.43;;
25497;SDS011;13406;53.380;7.226;2023-03-01T06:33:42;16.93;;;12.13;;
25497;SDS011;13406;53.380;7.226;2023-03-01T06:36:09;17.47;;;13.60;;
25497;SDS011;13406;53.380;7.226;2023-03-01T06:38:35;15.17;;;12.53;;
25497;SDS011;13406;53.380;7.226;2023-03-01T06:41:00;11.10;;;9.90;;
25497;SDS011;13406;53.380;7.226;2023-03-01T06:43:26;10.73;;;8.90;;
25497;SDS011;13406;53.380;7.226;2023-03-01T06:45:55;9.73;;;7.63;;
25497;SDS011;13406;53.380;7.226;2023-03-01T06:48:20;7.93;;;6.63;;
25497;SDS011;13406;53.380;7.226;2023-03-01T06:50:45;6.80;;;5.80;;
25497;SDS011;13406;53.380;7.226;2023-03-01T06:53:11;9.13;;;7.63;;
25497;SDS011;13406;53.380;7.226;2023-03-01T06:55:36;13.37;;;7.80;;
25497;SDS011;13406;53.380;7.226;2023-03-01T06:58:02;8.43;;;6.83;;
25497;SDS011;13406;53.380;7.226;2023-03-01T07:00:28;8.03;;;7.07;;
25497;SDS011;13406;53.380;7.226;2023-03-01T07:02:53;8.60;;;7.10;;
25497;SDS011;13406;53.380;7.226;2023-03-01T07:05:18;8.90;;;7.00;;
25497;SDS011;13406;53.380;7.226;2023-03-01T07:07:44;10.53;;;8.33;;
25497;SDS011;13406;53.380;7.226;2023-03-01T07:10:09;9.10;;;6.97;;
25497;SDS011;13406;53.380;7.226;2023-03-01T07:12:35;9.23;;;6.90;;
25497;SDS011;13406;53.380;7.226;2023-03-01T07:15:00;8.47;;;6.17;;
25497;SDS011;13406;53.380;7.226;2023-03-01T07:17:25;9.47;;;7.77;;
25497;SDS011;13406;53.380;7.226;2023-03-01T07:19:51;9.27;;;7.00;;
25497;SDS011;13406;53.380;7.226;2023-03-01T07:22:16;8.53;;;5.93;;
25497;SDS011;13406;53.380;7.226;2023-03-01T07:24:42;7.77;;;6.13;;
25497;SDS011;13406;53.380;7.226;2023-03-01T07:27:07;7.87;;;6.20;;
25497;SDS011;13406;53.380;7.226;2023-03-01T07:29:32;8.27;;;6.37;;
25497;SDS011;13406;53.380;7.226;2023-03-01T07:31:58;7.47;;;5.57;;
25497;SDS011;13406;53.380;7.226;2023-03-01T07:34:23;8.67;;;6.67;;
25497;SDS011;13406;53.380;7.226;2023-03-01T07:36:48;7.10;;;5.80;;
25497;SDS011;13406;53.380;7.226;2023-03-01T07:39:14;7.00;;;6.30;;
25497;SDS011;13406;53.380;7.226;2023-03-01T07:41:39;8.60;;;5.80;;
25497;SDS011;13406;53.380;7.226;2023-03-01T07:44:04;7.30;;;5.07;;
25497;SDS011;13406;53.380;7.226;2023-03-01T07:46:29;6.97;;;5.80;;
25497;SDS011;13406;53.380;7.226;2023-03-01T07:48:55;8.27;;;6.13;;
25497;SDS011;13406;53.380;7.226;2023-03-01T07:51:20;6.73;;;5.60;;
25497;SDS011;13406;53.380;7.226;2023-03-01T07:53:46;6.70;;;5.83;;
25497;SDS011;13406;53.380;7.226;2023-03-01T07:56:12;7.23;;;5.93;;
25497;SDS011;13406;53.380;7.226;2023-03-01T07:58:40;7.57;;;6.40;;
25497;SDS011;13406;53.380;7.226;2023-03-01T08:01:09;8.60;;;6.37;;
25497;SDS011;13406;53.380;7.226;2023-03-01T08:03:35;7.90;;;6.70;;
25497;SDS011;13406;53.380;7.226;2023-03-01T08:06:01;8.80;;;7.00;;
25497;SDS011;13406;53.380;7.226;2023-03-01T08:08:27;11.80;;;6.80;;
25497;SDS011;13406;53.380;7.226;2023-03-01T08:10:52;12.43;;;7.77;;
25497;SDS011;13406;53.380;7.226;2023-03-01T08:13:17;10.97;;;8.00;;
25497;SDS011;13406;53.380;7.226;2023-03-01T08:15:47;10.47;;;7.30;;
25497;SDS011;13406;53.380;7.226;2023-03-01T08:18:12;10.93;;;7.90;;
25497;SDS011;13406;53.380;7.226;2023-03-01T08:20:38;13.97;;;9.20;;
25497;SDS011;13406;53.380;7.226;2023-03-01T08:23:03;13.57;;;8.70;;
25497;SDS011;13406;53.380;7.226;2023-03-01T08:25:28;11.40;;;8.57;;
25497;SDS011;13406;53.380;7.226;2023-03-01T08:27:54;11.10;;;7.97;;
25497;SDS011;13406;53.380;7.226;2023-03-01T08:30:19;12.00;;;8.50;;
25497;SDS011;13406;53.380;7.226;2023-03-01T08:32:45;10.90;;;8.00;;
25497;SDS011;13406;53.380;7.226;2023-03-01T08:35:10;8.83;;;7.57;;
25497;SDS011;13406;53.380;7.226;2023-03-01T08:37:36;8.93;;;6.90;;
25497;SDS011;13406;53.380;7.226;2023-03-01T08:40:01;11.27;;;8.00;;
25497;SDS011;13406;53.380;7.226;2023-03-01T08:42:27;10.30;;;7.40;;
25497;SDS011;13406;53.380;7.226;2023-03-01T08:44:53;10.67;;;7.97;;
25497;SDS011;13406;53.380;7.226;2023-03-01T08:47:18;9.13;;;7.50;;
25497;SDS011;13406;53.380;7.226;2023-03-01T08:49:43;10.70;;;7.30;;
25497;SDS011;13406;53.380;7.226;2023-03-01T08:52:09;8.67;;;6.80;;
25497;SDS011;13406;53.380;7.226;2023-03-01T08:54:34;13.40;;;8.63;;
25497;SDS011;13406;53.380;7.226;2023-03-01T08:57:01;12.10;;;9.17;;
25497;SDS011;13406;53.380;7.226;2023-03-01T08:59:26;13.07;;;9.00;;
25497;SDS011;13406;53.380;7.226;2023-03-01T09:01:51;11.83;;;8.70;;
25497;SDS011;13406;53.380;7.226;2023-03-01T09:04:18;13.57;;;10.03;;
25497;SDS011;13406;53.380;7.226;2023-03-01T09:06:43;14.03;;;10.37;;
25497;SDS011;13406;53.380;7.226;2023-03-01T09:09:15;13.23;;;9.47;;
25497;SDS011;13406;53.380;7.226;2023-03-01T09:11:41;12.33;;;10.30;;
25497;SDS011;13406;53.380;7.226;2023-03-01T09:14:06;11.63;;;8.97;;
25497;SDS011;13406;53.380;7.226;2023-03-01T09:16:32;13.90;;;10.53;;
25497;SDS011;13406;53.380;7.226;2023-03-01T09:19:01;13.40;;;10.70;;
25497;SDS011;13406;53.380;7.226;2023-03-01T09:21:27;11.67;;;10.07;;
25497;SDS011;13406;53.380;7.226;2023-03-01T09:23:53;16.40;;;10.93;;
25497;SDS011;13406;53.380;7.226;2023-03-01T09:26:21;14.60;;;11.07;;
25497;SDS011;13406;53.380;7.226;2023-03-01T09:28:47;15.33;;;11.90;;
25497;SDS011;13406;53.380;7.226;2023-03-01T09:31:13;15.13;;;11.30;;
25497;SDS011;13406;53.380;7.226;2023-03-01T09:33:39;14.90;;;11.57;;
25497;SDS011;13406;53.380;7.226;2023-03-01T09:36:06;15.27;;;11.03;;
25497;SDS011;13406;53.380;7.226;2023-03-01T09:38:32;15.10;;;11.73;;
25497;SDS011;13406;53.380;7.226;2023-03-01T09:40:58;16.63;;;12.23;;
25497;SDS011;13406;53.380;7.226;2023-03-01T09:45:49;16.47;;;13.20;;
25497;SDS011;13406;53.380;7.226;2023-03-01T09:48:18;18.03;;;13.10;;
25497;SDS011;13406;53.380;7.226;2023-03-01T09:50:43;21.00;;;14.80;;
25497;SDS011;13406;53.380;7.226;2023-03-01T09:53:15;21.73;;;15.47;;
25497;SDS011;13406;53.380;7.226;2023-03-01T09:55:45;18.90;;;14.90;;
25497;SDS011;13406;53.380;7.226;2023-03-01T10:00:54;18.47;;;14.83;;
25497;SDS011;13406;53.380;7.226;2023-03-01T10:06:04;19.70;;;14.73;;
25497;SDS011;13406;53.380;7.226;2023-03-01T10:08:52;18.37;;;14.00;;
25497;SDS011;13406;53.380;7.226;2023-03-01T10:11:31;17.13;;;14.00;;
25497;SDS011;13406;53.380;7.226;2023-03-01T10:14:40;17.47;;;13.77;;
25497;SDS011;13406;53.380;7.226;2023-03-01T10:16:57;18.00;;;14.73;;
25497;SDS011;13406;53.380;7.226;2023-03-01T10:22:03;17.53;;;13.47;;
25497;SDS011;13406;53.380;7.226;2023-03-01T10:24:31;15.90;;;13.07;;
25497;SDS011;13406;53.380;7.226;2023-03-01T10:26:58;19.70;;;13.27;;
25497;SDS011;13406;53.380;7.226;2023-03-01T10:29:39;15.83;;;12.37;;
25497;SDS011;13406;53.380;7.226;2023-03-01T10:32:05;16.57;;;12.50;;
25497;SDS011;13406;53.380;7.226;2023-03-01T10:34:34;16.07;;;11.87;;
25497;SDS011;13406;53.380;7.226;2023-03-01T10:39:37;12.93;;;10.47;;
25497;SDS011;13406;53.380;7.226;2023-03-01T10:42:22;11.07;;;9.83;;
25497;SDS011;13406;53.380;7.226;2023-03-01T10:44:48;13.43;;;10.97;;
25497;SDS011;13406;53.380;7.226;2023-03-01T10:47:31;12.57;;;10.40;;
25497;SDS011;13406;53.380;7.226;2023-03-01T10:49:58;13.83;;;10.60;;
25497;SDS011;13406;53.380;7.226;2023-03-01T10:52:25;10.40;;;8.97;;
25497;SDS011;13406;53.380;7.226;2023-03-01T10:54:58;9.73;;;8.00;;
25497;SDS011;13406;53.380;7.226;2023-03-01T10:57:27;7.93;;;7.13;;
25497;SDS011;13406;53.380;7.226;2023-03-01T11:00:00;9.10;;;7.83;;
25497;SDS011;13406;53.380;7.226;2023-03-01T11:02:29;8.93;;;7.37;;
25497;SDS011;13406;53.380;7.226;2023-03-01T11:04:59;8.40;;;6.87;;
25497;SDS011;13406;53.380;7.226;2023-03-01T11:07:25;7.23;;;5.30;;
25497;SDS011;13406;53.380;7.226;2023-03-01T11:09:50;7.97;;;5.47;;
25497;SDS011;13406;53.380;7.226;2023-03-01T11:12:16;5.70;;;5.10;;
25497;SDS011;13406;53.380;7.226;2023-03-01T11:14:49;7.07;;;5.60;;
25497;SDS011;13406;53.380;7.226;2023-03-01T11:17:18;7.23;;;5.23;;
25497;SDS011;13406;53.380;7.226;2023-03-01T11:20:13;7.80;;;5.33;;
25497;SDS011;13406;53.380;7.226;2023-03-01T11:22:31;8.50;;;5.97;;
25497;SDS011;13406;53.380;7.226;2023-03-01T11:24:57;6.50;;;5.80;;
25497;SDS011;13406;53.380;7.226;2023-03-01T11:30:03;9.43;;;6.80;;
25497;SDS011;13406;53.380;7.226;2023-03-01T11:32:35;7.73;;;6.80;;
25497;SDS011;13406;53.380;7.226;2023-03-01T11:35:15;7.80;;;6.83;;
25497;SDS011;13406;53.380;7.226;2023-03-01T11:38:16;8.23;;;7.33;;
25497;SDS011;13406;53.380;7.226;2023-03-01T11:40:34;7.47;;;6.37;;
25497;SDS011;13406;53.380;7.226;2023-03-01T11:48:43;9.17;;;8.00;;
25497;SDS011;13406;53.380;7.226;2023-03-01T11:51:13;8.57;;;7.00;;
25497;SDS011;13406;53.380;7.226;2023-03-01T11:54:02;10.03;;;7.93;;
25497;SDS011;13406;53.380;7.226;2023-03-01T11:56:41;10.63;;;7.80;;
25497;SDS011;13406;53.380;7.226;2023-03-01T11:59:12;10.40;;;8.80;;
25497;SDS011;13406;53.380;7.226;2023-03-01T12:16:57;10.90;;;8.37;;
25497;SDS011;13406;53.380;7.226;2023-03-01T12:22:17;9.50;;;7.97;;
25497;SDS011;13406;53.380;7.226;2023-03-01T12:24:55;9.43;;;8.00;;
25497;SDS011;13406;53.380;7.226;2023-03-01T12:32:55;12.90;;;8.60;;
25497;SDS011;13406;53.380;7.226;2023-03-01T12:37:55;8.00;;;7.17;;
25497;SDS011;13406;53.380;7.226;2023-03-01T12:40:25;9.00;;;7.70;;
25497;SDS011;13406;53.380;7.226;2023-03-01T12:48:15;11.43;;;8.30;;
25497;SDS011;13406;53.380;7.226;2023-03-01T12:50:41;9.50;;;8.50;;
25497;SDS011;13406;53.380;7.226;2023-03-01T12:53:14;11.07;;;8.50;;
25497;SDS011;13406;53.380;7.226;2023-03-01T12:55:42;10.30;;;7.87;;
25497;SDS011;13406;53.380;7.226;2023-03-01T13:06:19;8.77;;;7.90;;
25497;SDS011;13406;53.380;7.226;2023-03-01T13:11:22;9.50;;;8.07;;
25497;SDS011;13406;53.380;7.226;2023-03-01T13:13:47;10.00;;;8.10;;
25497;SDS011;13406;53.380;7.226;2023-03-01T13:19:05;9.30;;;8.30;;
25497;SDS011;13406;53.380;7.226;2023-03-01T13:21:31;9.70;;;8.70;;
25497;SDS011;13406;53.380;7.226;2023-03-01T13:23:56;10.03;;;9.00;;
25497;SDS011;13406;53.380;7.226;2023-03-01T13:26:22;10.10;;;8.47;;
25497;SDS011;13406;53.380;7.226;2023-03-01T13:28:48;10.83;;;9.73;;
25497;SDS011;13406;53.380;7.226;2023-03-01T13:33:45;10.80;;;9.27;;
25497;SDS011;13406;53.380;7.226;2023-03-01T13:36:11;10.53;;;8.90;;
25497;SDS011;13406;53.380;7.226;2023-03-01T13:38:58;10.33;;;8.93;;
25497;SDS011;13406;53.380;7.226;2023-03-01T13:46:43;11.50;;;9.57;;
25497;SDS011;13406;53.380;7.226;2023-03-01T13:49:09;10.80;;;9.63;;
25497;SDS011;13406;53.380;7.226;2023-03-01T13:51:36;10.87;;;9.73;;
25497;SDS011;13406;53.380;7.226;2023-03-01T13:54:01;12.27;;;10.87;;
25497;SDS011;13406;53.380;7.226;2023-03-01T13:56:28;14.10;;;10.13;;
25497;SDS011;13406;53.380;7.226;2023-03-01T13:58:59;13.27;;;11.07;;
25497;SDS011;13406;53.380;7.226;2023-03-01T14:01:29;12.30;;;11.10;;
25497;SDS011;13406;53.380;7.226;2023-03-01T14:03:54;12.70;;;11.10;;
25497;SDS011;13406;53.380;7.226;2023-03-01T14:06:21;13.50;;;10.57;;
25497;SDS011;13406;53.380;7.226;2023-03-01T14:08:48;11.67;;;10.47;;
25497;SDS011;13406;53.380;7.226;2023-03-01T14:19:17;10.30;;;9.30;;
25497;SDS011;13406;53.380;7.226;2023-03-01T14:21:43;9.90;;;8.90;;
25497;SDS011;13406;53.380;7.226;2023-03-01T14:24:16;9.37;;;8.47;;
25497;SDS011;13406;53.380;7.226;2023-03-01T14:26:42;10.00;;;9.00;;
25497;SDS011;13406;53.380;7.226;2023-03-01T14:29:22;10.07;;;8.57;;
25497;SDS011;13406;53.380;7.226;2023-03-01T14:31:47;9.53;;;8.63;;
25497;SDS011;13406;53.380;7.226;2023-03-01T14:34:31;11.50;;;10.30;;
25497;SDS011;13406;53.380;7.226;2023-03-01T14:36:57;13.27;;;10.47;;
25497;SDS011;13406;53.380;7.226;2023-03-01T14:39:34;14.57;;;10.83;;
25497;SDS011;13406;53.380;7.226;2023-03-01T14:41:59;10.30;;;9.27;;
25497;SDS011;13406;53.380;7.226;2023-03-01T14:44:24;9.90;;;8.90;;
25497;SDS011;13406;53.380;7.226;2023-03-01T14:46:56;9.53;;;8.63;;
25497;SDS011;13406;53.380;7.226;2023-03-01T14:49:26;9.70;;;8.70;;
25497;SDS011;13406;53.380;7.226;2023-03-01T14:51:57;10.07;;;8.80;;
25497;SDS011;13406;53.380;7.226;2023-03-01T14:54:24;9.97;;;8.73;;
25497;SDS011;13406;53.380;7.226;2023-03-01T14:56:50;9.90;;;8.90;;
25497;SDS011;13406;53.380;7.226;2023-03-01T14:59:18;9.60;;;8.60;;
25497;SDS011;13406;53.380;7.226;2023-03-01T15:01:43;9.97;;;8.97;;
25497;SDS011;13406;53.380;7.226;2023-03-01T15:04:11;10.07;;;9.07;;
25497;SDS011;13406;53.380;7.226;2023-03-01T15:06:37;12.07;;;8.60;;
25497;SDS011;13406;53.380;7.226;2023-03-01T15:09:02;10.80;;;9.80;;
25497;SDS011;13406;53.380;7.226;2023-03-01T15:11:29;10.13;;;9.23;;
25497;SDS011;13406;53.380;7.226;2023-03-01T15:13:55;10.13;;;9.10;;
25497;SDS011;13406;53.380;7.226;2023-03-01T15:16:30;10.83;;;9.83;;
25497;SDS011;13406;53.380;7.226;2023-03-01T15:19:00;10.07;;;9.07;;
25497;SDS011;13406;53.380;7.226;2023-03-01T15:21:27;10.40;;;9.30;;
25497;SDS011;13406;53.380;7.226;2023-03-01T15:24:04;12.67;;;10.17;;
25497;SDS011;13406;53.380;7.226;2023-03-01T15:26:39;11.43;;;10.17;;
25497;SDS011;13406;53.380;7.226;2023-03-01T15:29:05;11.30;;;10.20;;
25497;SDS011;13406;53.380;7.226;2023-03-01T15:31:41;10.50;;;9.37;;
25497;SDS011;13406;53.380;7.226;2023-03-01T15:34:08;12.57;;;10.80;;
25497;SDS011;13406;53.380;7.226;2023-03-01T15:36:36;11.20;;;10.10;;
25497;SDS011;13406;53.380;7.226;2023-03-01T15:39:03;11.93;;;10.37;;
25497;SDS011;13406;53.380;7.226;2023-03-01T15:41:52;11.67;;;10.57;;
25497;SDS011;13406;53.380;7.226;2023-03-01T15:44:17;13.67;;;10.90;;
25497;SDS011;13406;53.380;7.226;2023-03-01T15:46:46;12.90;;;11.30;;
25497;SDS011;13406;53.380;7.226;2023-03-01T15:49:34;12.10;;;10.90;;
25497;SDS011;13406;53.380;7.226;2023-03-01T15:52:00;12.47;;;11.00;;
25497;SDS011;13406;53.380;7.226;2023-03-01T15:54:26;12.87;;;10.90;;
25497;SDS011;13406;53.380;7.226;2023-03-01T15:56:52;10.93;;;9.97;;
25497;SDS011;13406;53.380;7.226;2023-03-01T15:59:17;12.03;;;10.57;;
25497;SDS011;13406;53.380;7.226;2023-03-01T16:01:43;12.10;;;10.90;;
25497;SDS011;13406;53.380;7.226;2023-03-01T16:04:12;13.27;;;10.90;;
25497;SDS011;13406;53.380;7.226;2023-03-01T16:06:41;10.80;;;9.77;;